Time;durP1;ratioP1;P1;durP2;ratioP2;P2;SDS_P1;SDS_P2;PMS_P1;PMS_P2;Temp;Humidity;BMP_temperature;BMP_pressure;BME280_temperature;BME280_humidity;BME280_pressure;Samples;Min_cycle;Max_cycle;Signal;HPM_P1;HPM_P2
2023/07/30 00:01:07;;;;;;;1.15;0.63;;;;;;;24.58;41.29;99350.31;5111121;28;20038;-83
2023/07/30 00:03:32;;;;;;;1.20;1.10;;;;;;;24.42;41.41;99335.31;5110722;27;20032;-83
2023/07/30 00:05:58;;;;;;;1.92;0.65;;;;;;;24.40;41.28;99331.00;5110772;28;20032;-83
2023/07/30 00:08:25;;;;;;;0.65;0.43;;;;;;;24.50;41.39;99358.97;5110570;28;20024;-84
2023/07/30 00:10:50;;;;;;;0.95;0.60;;;;;;;24.62;41.93;99370.63;5110906;28;20488;-83
2023/07/30 00:13:16;;;;;;;0.95;0.90;;;;;;;24.44;41.95;99345.97;5110677;28;20059;-83
2023/07/30 00:15:41;;;;;;;1.00;0.45;;;;;;;24.49;41.36;99365.31;5109859;28;20028;-84
2023/07/30 00:18:07;;;;;;;1.23;0.63;;;;;;;24.21;41.78;99336.97;5110077;28;20057;-84
2023/07/30 00:20:35;;;;;;;0.60;0.52;;;;;;;24.13;42.37;99346.50;5090002;28;20035;-83
2023/07/30 00:23:01;;;;;;;1.63;0.68;;;;;;;24.16;41.87;99360.69;5094195;28;20468;-81
2023/07/30 00:25:26;;;;;;;2.08;0.73;;;;;;;24.06;41.71;99353.31;5110619;28;20032;-81
2023/07/30 00:27:52;;;;;;;0.90;0.70;;;;;;;24.15;41.68;99350.91;5103435;28;20088;-81
2023/07/30 00:30:17;;;;;;;1.50;1.08;;;;;;;24.06;41.78;99344.41;5103015;28;20032;-82
2023/07/30 00:32:43;;;;;;;0.77;0.60;;;;;;;23.78;42.16;99298.84;5110217;28;20421;-82
2023/07/30 00:35:09;;;;;;;0.50;0.47;;;;;;;24.09;42.73;99358.47;5110242;28;20020;-87
2023/07/30 00:37:34;;;;;;;0.52;0.30;;;;;;;23.84;42.79;99329.88;5094270;28;20028;-82
2023/07/30 00:40:00;;;;;;;1.00;0.90;;;;;;;24.00;42.90;99340.31;5090313;28;20115;-82
2023/07/30 00:42:25;;;;;;;0.30;0.20;;;;;;;23.93;42.69;99329.16;5108990;28;20123;-82
2023/07/30 00:44:50;;;;;;;1.25;0.93;;;;;;;24.08;42.81;99359.47;5110296;28;20030;-82
2023/07/30 00:47:16;;;;;;;0.55;0.52;;;;;;;23.91;43.19;99314.97;5109591;28;20034;-81
2023/07/30 00:49:42;;;;;;;1.23;1.13;;;;;;;23.99;43.83;99352.09;5110482;28;20165;-82
2023/07/30 00:52:08;;;;;;;0.80;0.55;;;;;;;23.99;43.83;99370.94;5109832;28;20093;-82
2023/07/30 00:54:34;;;;;;;3.83;1.40;;;;;;;23.85;44.22;99357.66;5110332;28;20062;-82
2023/07/30 00:57:00;;;;;;;1.95;1.23;;;;;;;23.91;43.98;99370.66;5108669;28;20562;-83
2023/07/30 00:59:26;;;;;;;2.58;1.83;;;;;;;23.88;43.87;99382.53;5112355;28;20830;-86
2023/07/30 01:01:53;;;;;;;1.40;1.17;;;;;;;23.58;44.12;99347.97;5114431;28;20030;-83
2023/07/30 01:04:19;;;;;;;1.73;1.15;;;;;;;23.57;44.30;99359.69;5113671;28;20020;-83
2023/07/30 01:06:44;;;;;;;1.20;0.90;;;;;;;23.45;44.64;99347.13;5114635;28;20045;-83
2023/07/30 01:09:11;;;;;;;2.33;1.92;;;;;;;23.57;44.49;99367.75;5114343;28;20409;-83
2023/07/30 01:11:38;;;;;;;1.77;1.67;;;;;;;23.40;44.68;99369.00;5107545;28;20035;-86
2023/07/30 01:14:05;;;;;;;1.38;1.00;;;;;;;23.01;45.30;99350.25;5111471;28;20057;-82
2023/07/30 01:16:31;;;;;;;1.48;1.02;;;;;;;22.59;46.30;99352.34;5114246;28;20032;-81
2023/07/30 01:19:03;;;;;;;0.63;0.63;;;;;;;22.70;46.12;99370.41;5113929;28;20058;-82
2023/07/30 01:21:29;;;;;;;1.45;1.35;;;;;;;22.39;47.20;99359.13;5114550;28;20102;-82
2023/07/30 01:23:54;;;;;;;1.52;1.15;;;;;;;22.46;47.40;99383.72;5113886;28;20108;-82
2023/07/30 01:26:24;;;;;;;1.15;1.05;;;;;;;22.33;47.81;99381.88;5099186;28;20028;-81
2023/07/30 01:28:55;;;;;;;2.47;1.20;;;;;;;22.09;49.18;99387.09;5113568;27;20488;-82
2023/07/30 01:31:26;;;;;;;1.83;1.70;;;;;;;21.88;50.04;99402.81;5114002;28;20035;-82
2023/07/30 01:33:55;;;;;;;4.50;1.70;;;;;;;21.60;50.16;99350.94;5113885;28;20104;-82
2023/07/30 01:36:21;;;;;;;2.10;1.75;;;;;;;22.06;50.06;99389.09;5112138;28;20130;-82
2023/07/30 01:38:49;;;;;;;0.90;0.90;;;;;;;21.79;50.04;99361.31;5113551;28;20027;-82
2023/07/30 01:41:14;;;;;;;2.53;1.77;;;;;;;21.58;50.00;99342.16;5113782;28;20034;-81
2023/07/30 01:43:40;;;;;;;2.42;1.23;;;;;;;21.71;50.48;99366.34;5106598;28;20028;-81
2023/07/30 01:46:05;;;;;;;17.58;2.08;;;;;;;21.91;50.02;99399.91;5113348;28;20057;-81
2023/07/30 01:48:31;;;;;;;3.67;1.25;;;;;;;21.93;50.17;99402.50;5114050;28;20023;-81
2023/07/30 01:50:56;;;;;;;0.95;0.75;;;;;;;21.74;50.69;99386.75;5113396;28;20500;-81
2023/07/30 01:53:21;;;;;;;5.35;2.05;;;;;;;21.73;50.91;99379.66;5112774;28;20104;-82
2023/07/30 01:55:47;;;;;;;2.72;1.27;;;;;;;21.79;50.68;99380.09;5113275;28;20108;-81
2023/07/30 01:58:13;;;;;;;1.80;1.20;;;;;;;21.78;50.78;99380.22;5113127;28;20024;-82
2023/07/30 02:00:39;;;;;;;1.25;1.15;;;;;;;21.74;50.58;99366.13;5112626;28;20035;-82
2023/07/30 02:03:05;;;;;;;1.00;0.95;;;;;;;22.04;49.80;99396.41;5113736;28;20028;-81
2023/07/30 02:05:30;;;;;;;4.10;1.27;;;;;;;21.75;50.17;99370.56;5112996;27;20037;-86
2023/07/30 02:07:56;;;;;;;3.85;1.10;;;;;;;21.73;50.19;99404.66;5113234;28;20144;-82
2023/07/30 02:10:24;;;;;;;0.40;0.40;;;;;;;21.39;51.20;99376.47;5112524;28;20445;-83
2023/07/30 02:12:49;;;;;;;2.08;1.17;;;;;;;21.68;51.31;99409.50;5113205;28;20038;-82
2023/07/30 02:15:15;;;;;;;2.30;1.10;;;;;;;21.69;51.03;99388.88;5112616;28;20031;-82
2023/07/30 02:17:41;;;;;;;2.78;1.38;;;;;;;21.81;51.03;99404.16;5112838;28;20028;-81
2023/07/30 02:20:07;;;;;;;1.85;1.45;;;;;;;21.65;50.40;99369.44;5113393;28;20045;-81
2023/07/30 02:22:32;;;;;;;1.65;1.10;;;;;;;21.99;50.12;99404.78;5112823;28;20072;-80
2023/07/30 02:24:58;;;;;;;1.42;0.80;;;;;;;21.70;50.58;99369.13;5112707;28;20606;-80
2023/07/30 02:27:23;;;;;;;1.25;1.15;;;;;;;21.84;51.03;99392.38;5112203;28;20408;-80
2023/07/30 02:29:49;;;;;;;1.17;1.05;;;;;;;21.63;51.40;99384.78;5112941;28;20028;-81
2023/07/30 02:32:16;;;;;;;4.68;1.67;;;;;;;21.61;51.41;99382.22;5112613;28;20039;-81
2023/07/30 02:34:41;;;;;;;1.50;1.15;;;;;;;21.69;51.55;99395.13;5112654;28;20191;-82
2023/07/30 02:37:07;;;;;;;0.93;0.90;;;;;;;21.69;51.73;99381.69;5113351;28;20028;-83
2023/07/30 02:39:32;;;;;;;1.13;0.45;;;;;;;21.79;51.18;99408.78;5112768;28;20032;-81
2023/07/30 02:41:58;;;;;;;1.30;1.15;;;;;;;21.66;51.78;99389.06;5112038;28;20508;-80
2023/07/30 02:44:24;;;;;;;4.15;1.17;;;;;;;21.61;51.41;99379.53;5111749;28;20421;-81
2023/07/30 02:46:49;;;;;;;3.83;1.23;;;;;;;21.57;51.46;99356.53;5113061;28;20102;-81
2023/07/30 02:49:15;;;;;;;0.90;0.63;;;;;;;21.87;51.33;99394.84;5112297;28;20028;-82
2023/07/30 02:51:40;;;;;;;1.95;0.60;;;;;;;21.94;51.09;99413.13;5112291;28;20482;-82
2023/07/30 02:54:07;;;;;;;2.20;1.73;;;;;;;21.82;51.30;99412.13;5111641;28;20503;-82
2023/07/30 02:56:33;;;;;;;1.77;1.08;;;;;;;21.73;51.18;99396.63;5112079;28;20501;-82
2023/07/30 02:58:59;;;;;;;1.23;1.10;;;;;;;21.91;51.20;99420.53;5112150;28;20213;-81
2023/07/30 03:01:25;;;;;;;0.65;0.65;;;;;;;21.85;51.39;99405.69;5111571;28;20031;-82
2023/07/30 03:03:50;;;;;;;1.17;1.08;;;;;;;21.73;51.78;99401.13;5112073;28;20032;-81
2023/07/30 03:06:16;;;;;;;0.80;0.80;;;;;;;21.73;51.52;99406.50;5112269;28;20123;-83
2023/07/30 03:08:43;;;;;;;1.50;0.95;;;;;;;21.91;51.60;99428.59;5112666;28;20024;-83
2023/07/30 03:11:08;;;;;;;1.02;0.65;;;;;;;21.74;51.86;99410.91;5111219;28;20034;-86
2023/07/30 03:13:34;;;;;;;2.08;0.98;;;;;;;21.88;51.98;99437.72;5112053;28;20039;-83
2023/07/30 03:15:59;;;;;;;2.05;1.33;;;;;;;21.64;52.09;99419.56;5112244;28;20508;-83
2023/07/30 03:18:25;;;;;;;1.60;1.08;;;;;;;21.63;52.07;99422.38;5112644;28;20092;-83
2023/07/30 03:20:50;;;;;;;0.55;0.55;;;;;;;21.65;52.01;99398.97;5111671;28;20034;-83
2023/07/30 03:23:16;;;;;;;2.47;1.80;;;;;;;21.82;52.39;99446.16;5111415;28;20030;-84
2023/07/30 03:25:41;;;;;;;1.60;1.50;;;;;;;21.84;52.21;99446.06;5112095;28;20028;-82
2023/07/30 03:28:07;;;;;;;1.55;1.30;;;;;;;21.84;52.62;99454.13;5112360;28;20058;-82
2023/07/30 03:30:32;;;;;;;2.67;1.15;;;;;;;21.71;52.55;99422.72;5112262;27;20396;-80
2023/07/30 03:32:58;;;;;;;4.20;0.93;;;;;;;21.90;52.63;99446.50;5110726;28;20119;-81
2023/07/30 03:35:23;;;;;;;1.13;0.88;;;;;;;21.56;53.55;99429.94;5112012;28;20066;-80
2023/07/30 03:37:49;;;;;;;2.47;1.17;;;;;;;21.62;53.90;99432.22;5110928;28;20039;-84
2023/07/30 03:40:14;;;;;;;1.67;1.30;;;;;;;21.40;53.76;99392.47;5111290;28;20080;-80
2023/07/30 03:42:40;;;;;;;1.20;1.10;;;;;;;21.63;53.66;99417.84;5110582;28;20036;-82
2023/07/30 03:45:06;;;;;;;0.80;0.70;;;;;;;21.73;53.92;99436.03;5111065;28;20028;-79
2023/07/30 03:47:31;;;;;;;0.90;0.90;;;;;;;21.55;54.28;99404.06;5125862;27;20031;-78
2023/07/30 03:49:57;;;;;;;1.45;1.27;;;;;;;21.69;54.53;99440.75;5111158;27;20027;-78
2023/07/30 03:52:22;;;;;;;1.70;0.98;;;;;;;21.78;54.38;99444.63;5105981;28;20104;-78
2023/07/30 03:54:48;;;;;;;1.45;1.15;;;;;;;21.95;54.45;99459.63;5097498;28;20085;-79
2023/07/30 03:57:13;;;;;;;2.83;1.90;;;;;;;21.73;54.64;99428.84;5092915;27;20055;-78
2023/07/30 03:59:38;;;;;;;13.57;1.92;;;;;;;21.70;54.37;99412.06;5097586;27;20144;-77
2023/07/30 04:02:04;;;;;;;2.60;1.70;;;;;;;21.84;54.71;99457.66;5101213;28;20034;-79
2023/07/30 04:04:30;;;;;;;5.05;1.83;;;;;;;21.67;54.33;99434.59;5111011;28;20034;-77
2023/07/30 04:06:55;;;;;;;5.10;1.98;;;;;;;21.84;54.44;99438.00;5110162;28;20036;-79
2023/07/30 04:09:20;;;;;;;1.40;1.23;;;;;;;21.98;54.21;99440.63;5109533;28;20084;-84
2023/07/30 04:11:46;;;;;;;2.45;1.20;;;;;;;22.05;54.28;99473.34;5110583;28;20028;-78
2023/07/30 04:14:12;;;;;;;4.90;1.65;;;;;;;22.04;54.24;99467.09;5095598;28;20081;-78
2023/07/30 04:16:37;;;;;;;2.78;1.48;;;;;;;22.05;53.94;99463.44;5089814;28;20035;-78
2023/07/30 04:19:02;;;;;;;3.65;2.95;;;;;;;22.30;53.56;99468.06;5107027;28;20024;-79
2023/07/30 04:21:28;;;;;;;5.95;1.38;;;;;;;22.29;53.34;99468.13;5110048;28;20032;-79
2023/07/30 04:23:53;;;;;;;1.98;0.85;;;;;;;22.21;52.90;99449.84;5110263;28;20051;-78
2023/07/30 04:26:19;;;;;;;2.63;1.30;;;;;;;22.25;52.87;99445.16;5110228;28;20039;-79
2023/07/30 04:28:44;;;;;;;1.83;1.20;;;;;;;22.43;52.58;99452.00;5109604;28;20425;-80
2023/07/30 04:31:10;;;;;;;0.60;0.60;;;;;;;22.61;52.26;99465.97;5109886;28;20043;-82
2023/07/30 04:33:35;;;;;;;11.00;1.75;;;;;;;22.46;51.87;99419.53;5109466;28;20023;-82
2023/07/30 04:36:02;;;;;;;2.13;1.30;;;;;;;22.08;53.60;99467.75;5108785;28;20401;-80
2023/07/30 04:38:27;;;;;;;2.38;1.50;;;;;;;22.17;53.76;99476.06;5110341;28;20059;-80
2023/07/30 04:40:53;;;;;;;2.60;1.92;;;;;;;22.44;53.01;99477.03;5109600;28;20085;-83
2023/07/30 04:43:18;;;;;;;1.38;1.10;;;;;;;22.18;52.97;99464.38;5108357;28;20577;-86
2023/07/30 04:45:44;;;;;;;2.40;1.45;;;;;;;22.36;53.27;99480.22;5106059;28;20024;-80
2023/07/30 04:48:09;;;;;;;0.93;0.82;;;;;;;22.56;53.10;99472.66;5098059;28;20039;-85
2023/07/30 04:50:35;;;;;;;2.63;1.45;;;;;;;22.83;52.91;99494.97;5098308;28;20034;-79
2023/07/30 04:53:00;;;;;;;1.90;1.70;;;;;;;22.82;51.58;99493.22;5108700;28;20092;-79
2023/07/30 04:55:27;;;;;;;2.08;1.83;;;;;;;22.99;51.15;99475.91;5109739;28;20199;-79
2023/07/30 04:57:52;;;;;;;1.52;0.80;;;;;;;22.95;50.85;99468.16;5109998;28;20023;-84
2023/07/30 05:00:18;;;;;;;1.73;1.63;;;;;;;23.07;51.19;99486.13;5110220;28;20032;-79
2023/07/30 05:02:43;;;;;;;2.60;1.40;;;;;;;23.24;50.98;99499.28;5106649;28;20038;-82
2023/07/30 05:05:09;;;;;;;2.75;1.00;;;;;;;23.20;51.46;99488.84;5094916;28;20152;-80
2023/07/30 05:07:34;;;;;;;1.95;1.50;;;;;;;23.37;50.61;99463.41;5093817;28;20031;-83
2023/07/30 05:10:00;;;;;;;1.98;0.88;;;;;;;23.75;50.19;99475.94;5094833;28;20036;-83
2023/07/30 05:12:25;;;;;;;1.48;0.98;;;;;;;23.39;50.38;99443.50;5098253;28;20039;-82
2023/07/30 05:14:51;;;;;;;2.33;1.25;;;;;;;23.87;49.76;99475.06;5091902;28;20039;-85
2023/07/30 05:17:17;;;;;;;2.40;1.42;;;;;;;24.01;49.34;99489.38;5092536;28;20172;-81
2023/07/30 05:19:42;;;;;;;3.33;1.55;;;;;;;24.26;48.54;99481.16;5095110;28;20093;-81
2023/07/30 05:22:08;;;;;;;1.45;1.35;;;;;;;24.36;47.05;99488.53;5093628;28;20028;-82
2023/07/30 05:24:33;;;;;;;4.95;1.48;;;;;;;24.41;47.07;99465.66;5091343;28;20045;-81
2023/07/30 05:27:00;;;;;;;3.05;1.80;;;;;;;24.82;46.22;99488.63;5093526;28;20048;-82
2023/07/30 05:29:25;;;;;;;1.85;1.10;;;;;;;24.81;46.15;99491.44;5095317;28;20100;-81
2023/07/30 05:31:50;;;;;;;1.42;1.27;;;;;;;24.90;46.44;99487.13;5094933;28;20062;-80
2023/07/30 05:34:16;;;;;;;3.88;1.90;;;;;;;25.12;46.20;99467.44;5096592;28;20032;-80
2023/07/30 05:36:41;;;;;;;1.63;1.27;;;;;;;25.44;45.08;99486.50;5097267;28;20035;-80
2023/07/30 05:39:07;;;;;;;1.95;1.83;;;;;;;25.50;45.38;99498.63;5090358;28;20436;-83
2023/07/30 05:41:32;;;;;;;3.17;1.95;;;;;;;25.76;45.00;99501.91;5097119;28;20051;-83
2023/07/30 05:43:58;;;;;;;3.72;1.40;;;;;;;25.86;44.99;99489.38;5101486;28;20058;-83
2023/07/30 05:46:23;;;;;;;10.10;1.00;;;;;;;25.77;44.52;99457.72;5097269;28;20351;-87
2023/07/30 05:48:49;;;;;;;2.92;1.15;;;;;;;25.71;44.46;99458.22;5099389;28;20042;-86
2023/07/30 05:51:14;;;;;;;2.45;1.38;;;;;;;25.91;43.96;99473.66;5095054;28;20520;-84
2023/07/30 05:53:39;;;;;;;3.85;1.83;;;;;;;26.69;43.06;99494.31;5102869;28;20119;-83
2023/07/30 05:56:05;;;;;;;1.95;1.75;;;;;;;26.56;42.52;99468.28;5096986;28;20040;-87
2023/07/30 05:58:30;;;;;;;2.55;1.65;;;;;;;26.80;41.74;99451.81;5100023;28;20374;-87
2023/07/30 06:00:56;;;;;;;2.63;1.25;;;;;;;26.95;41.43;99460.44;5100487;28;20032;-85
2023/07/30 06:03:22;;;;;;;1.42;0.90;;;;;;;27.27;40.98;99491.09;5097259;28;21534;-85
2023/07/30 06:05:47;;;;;;;0.98;0.63;;;;;;;27.56;40.34;99463.28;5095546;28;20036;-89
2023/07/30 06:08:13;;;;;;;3.40;2.35;;;;;;;27.83;39.79;99477.06;5096536;28;20115;-85
2023/07/30 06:10:40;;;;;;;9.85;1.48;;;;;;;27.61;39.59;99472.72;5098002;28;20035;-85
2023/07/30 06:13:05;;;;;;;1.92;1.67;;;;;;;27.82;39.51;99488.03;5095954;27;20560;-85
2023/07/30 06:15:32;;;;;;;3.78;1.30;;;;;;;27.57;39.67;99484.81;5096347;28;20057;-84
2023/07/30 06:17:57;;;;;;;1.45;1.08;;;;;;;27.64;41.01;99482.44;5097334;28;20110;-83
2023/07/30 06:20:23;;;;;;;1.92;1.60;;;;;;;28.28;40.08;99491.16;5095940;28;20035;-83
2023/07/30 06:22:48;;;;;;;1.15;1.05;;;;;;;28.48;38.58;99463.00;5092991;28;20482;-85
2023/07/30 06:25:14;;;;;;;3.67;1.05;;;;;;;28.78;38.54;99485.59;5095786;28;20036;-85
2023/07/30 06:27:40;;;;;;;1.45;1.30;;;;;;;28.63;39.39;99454.50;5095745;28;20035;-89
2023/07/30 06:30:06;;;;;;;3.05;1.77;;;;;;;29.06;39.02;99478.38;5096577;28;20057;-85
2023/07/30 06:32:32;;;;;;;1.40;1.00;;;;;;;29.27;38.97;99480.06;5096986;28;20038;-86
2023/07/30 06:34:58;;;;;;;1.48;1.17;;;;;;;29.11;37.52;99480.66;5096376;28;20040;-85
2023/07/30 06:37:24;;;;;;;2.35;1.67;;;;;;;29.48;36.73;99484.44;5095484;28;20489;-87
2023/07/30 06:39:49;;;;;;;1.00;0.88;;;;;;;29.29;37.08;99453.63;5095095;28;20084;-85
2023/07/30 06:42:15;;;;;;;2.55;1.33;;;;;;;30.05;36.54;99479.69;5097543;28;20036;-83
2023/07/30 06:44:41;;;;;;;1.75;1.27;;;;;;;30.35;35.85;99478.47;5099350;28;20127;-83
2023/07/30 06:47:06;;;;;;;3.00;1.60;;;;;;;30.56;34.92;99443.81;5100767;28;20023;-88
2023/07/30 06:49:34;;;;;;;1.77;1.10;;;;;;;30.62;34.55;99454.91;5099179;28;20035;-85
2023/07/30 06:52:00;;;;;;;1.40;1.10;;;;;;;30.88;33.72;99473.97;5092121;28;20032;-82
2023/07/30 06:54:25;;;;;;;2.13;1.08;;;;;;;30.88;34.87;99464.97;5095426;28;20046;-84
2023/07/30 06:56:52;;;;;;;1.08;0.88;;;;;;;31.04;35.57;99459.66;5094009;28;20063;-84
2023/07/30 06:59:17;;;;;;;2.30;1.33;;;;;;;30.47;35.86;99419.22;5094938;28;20053;-83
2023/07/30 07:01:44;;;;;;;3.67;1.77;;;;;;;30.87;34.28;99461.38;5095184;28;20385;-85
2023/07/30 07:04:09;;;;;;;1.52;1.02;;;;;;;30.42;34.41;99450.66;5094974;28;20111;-84
2023/07/30 07:06:35;;;;;;;1.58;1.27;;;;;;;31.04;33.92;99447.91;5093153;28;20119;-83
2023/07/30 07:09:00;;;;;;;3.05;1.75;;;;;;;31.21;33.62;99427.91;5096191;28;20043;-83
2023/07/30 07:11:26;;;;;;;2.80;1.75;;;;;;;31.22;32.61;99396.94;5096038;28;20063;-83
2023/07/30 07:13:51;;;;;;;2.05;0.98;;;;;;;31.55;31.93;99428.94;5099254;28;21917;-82
2023/07/30 07:16:17;;;;;;;1.92;1.00;;;;;;;31.58;33.33;99421.28;5095598;28;20032;-83
2023/07/30 07:18:42;;;;;;;1.27;0.95;;;;;;;31.82;33.60;99410.59;5096416;28;20162;-84
2023/07/30 07:21:08;;;;;;;1.52;1.38;;;;;;;32.07;31.89;99416.94;5096489;28;20051;-84
2023/07/30 07:23:33;;;;;;;9.35;2.38;;;;;;;32.41;30.69;99430.47;5095810;28;20036;-84
2023/07/30 07:25:59;;;;;;;2.05;1.00;;;;;;;31.84;31.07;99405.81;5094622;28;20032;-83
2023/07/30 07:28:25;;;;;;;1.95;1.13;;;;;;;31.66;31.42;99392.34;5098019;28;20126;-83
2023/07/30 07:30:50;;;;;;;1.48;0.68;;;;;;;31.63;31.67;99422.66;5096457;28;20040;-83
2023/07/30 07:33:16;;;;;;;1.35;1.20;;;;;;;31.91;32.45;99412.31;5095790;28;20077;-83
2023/07/30 07:35:41;;;;;;;2.67;1.13;;;;;;;32.11;32.43;99432.00;5095008;28;20030;-83
2023/07/30 07:38:07;;;;;;;2.53;2.10;;;;;;;32.22;32.68;99392.63;5095446;28;20103;-84
2023/07/30 07:40:42;;;;;;;8.63;4.22;;;;;;;32.53;31.30;99428.25;5097441;28;20060;-84
2023/07/30 07:43:08;;;;;;;1.98;1.13;;;;;;;32.40;30.49;99411.56;5092062;28;20637;-84
2023/07/30 07:45:34;;;;;;;1.00;0.88;;;;;;;32.72;30.66;99424.34;5093935;28;20032;-83
2023/07/30 07:48:00;;;;;;;2.33;1.30;;;;;;;32.53;30.59;99403.69;5095980;28;20085;-84
2023/07/30 07:50:25;;;;;;;2.78;1.02;;;;;;;32.16;31.52;99412.38;5094069;28;20047;-84
2023/07/30 07:52:50;;;;;;;2.47;1.38;;;;;;;32.38;31.24;99408.13;5093562;28;20043;-83
2023/07/30 07:55:16;;;;;;;3.92;0.90;;;;;;;32.60;32.24;99426.53;5093463;28;20053;-83
2023/07/30 07:57:42;;;;;;;3.35;1.48;;;;;;;32.76;31.48;99403.84;5103509;28;20046;-83
2023/07/30 08:00:08;;;;;;;2.78;2.20;;;;;;;33.36;30.13;99410.69;5096478;28;20417;-83
2023/07/30 08:02:34;;;;;;;1.50;0.90;;;;;;;32.87;30.03;99382.66;5089987;28;20028;-84
2023/07/30 08:05:00;;;;;;;1.83;1.48;;;;;;;32.72;31.12;99390.72;5090425;28;20039;-83
2023/07/30 08:07:26;;;;;;;2.17;1.67;;;;;;;33.60;30.52;99411.63;5093795;28;20080;-83
2023/07/30 08:09:51;;;;;;;2.85;1.77;;;;;;;33.71;30.61;99407.63;5109260;28;20031;-83
2023/07/30 08:12:19;;;;;;;6.72;1.30;;;;;;;33.79;29.97;99410.34;5109666;28;20087;-83
2023/07/30 08:14:44;;;;;;;2.75;1.25;;;;;;;33.58;29.97;99405.47;5109809;28;20694;-82
2023/07/30 08:17:10;;;;;;;2.83;1.35;;;;;;;33.12;28.84;99375.22;5108141;28;20027;-84
2023/07/30 08:19:35;;;;;;;1.58;0.98;;;;;;;33.57;30.92;99379.16;5109917;28;20019;-82
2023/07/30 08:22:01;;;;;;;1.85;1.30;;;;;;;33.16;31.30;99376.59;5109348;28;20111;-83
2023/07/30 08:24:26;;;;;;;4.82;1.67;;;;;;;32.90;30.61;99358.56;5109519;28;20028;-83
2023/07/30 08:26:52;;;;;;;1.52;1.10;;;;;;;33.04;30.37;99378.84;5101701;28;20036;-83
2023/07/30 08:29:17;;;;;;;4.47;2.00;;;;;;;33.56;29.53;99396.59;5108921;28;20020;-83
2023/07/30 08:31:42;;;;;;;2.90;2.05;;;;;;;34.00;30.65;99393.28;5108310;28;20039;-81
2023/07/30 08:34:08;;;;;;;2.88;1.08;;;;;;;34.47;30.23;99388.63;5096276;28;20070;-84
2023/07/30 08:36:33;;;;;;;2.22;1.45;;;;;;;34.09;27.54;99380.38;5095972;28;20128;-83
2023/07/30 08:38:59;;;;;;;2.33;1.30;;;;;;;34.23;28.69;99376.84;5100322;28;20473;-86
2023/07/30 08:41:24;;;;;;;3.05;0.77;;;;;;;34.35;32.41;99377.28;5094773;28;20120;-84
2023/07/30 08:43:51;;;;;;;3.53;2.17;;;;;;;34.65;29.06;99354.56;5095363;28;20040;-84
2023/07/30 08:46:17;;;;;;;2.67;1.50;;;;;;;34.52;27.24;99357.97;5092067;28;20122;-85
2023/07/30 08:48:43;;;;;;;3.50;1.52;;;;;;;34.76;27.02;99335.00;5095313;28;20124;-84
2023/07/30 08:51:11;;;;;;;1.08;0.80;;;;;;;35.26;25.69;99329.78;5092846;28;20031;-86
2023/07/30 08:53:37;;;;;;;1.75;1.08;;;;;;;34.94;26.58;99329.09;5094694;28;20059;-86
2023/07/30 08:56:05;;;;;;;1.73;1.30;;;;;;;34.92;26.53;99296.41;5091419;28;20028;-89
2023/07/30 08:58:33;;;;;;;0.65;0.55;;;;;;;35.48;26.48;99337.00;5095440;28;20482;-87
2023/07/30 09:01:00;;;;;;;0.93;0.82;;;;;;;35.66;27.06;99308.28;5093245;28;20040;-90
2023/07/30 09:03:27;;;;;;;1.42;0.68;;;;;;;35.66;25.34;99313.75;5093881;28;20125;-89
2023/07/30 09:05:53;;;;;;;0.52;0.47;;;;;;;35.76;25.19;99317.06;5093184;28;21774;-87
2023/07/30 09:08:19;;;;;;;1.98;0.95;;;;;;;35.88;24.92;99333.00;5094305;28;20024;-88
2023/07/30 09:10:44;;;;;;;6.43;1.90;;;;;;;35.61;25.63;99316.25;5091620;28;20032;-89
2023/07/30 09:13:10;;;;;;;1.08;0.82;;;;;;;34.79;26.81;99313.53;5095780;28;20381;-87
2023/07/30 09:15:37;;;;;;;1.83;0.98;;;;;;;34.52;27.31;99315.00;5094184;28;20114;-87
2023/07/30 09:18:08;;;;;;;0.90;0.60;;;;;;;34.94;27.18;99296.22;5091317;28;20028;-87
2023/07/30 09:20:41;;;;;;;1.13;0.80;;;;;;;35.08;25.69;99306.34;5095945;28;20122;-85
2023/07/30 09:23:07;;;;;;;0.60;0.52;;;;;;;35.43;25.93;99295.59;5095674;28;20028;-89
2023/07/30 09:25:34;;;;;;;0.85;0.70;;;;;;;35.39;24.53;99301.66;5100357;28;20042;-84
2023/07/30 09:27:59;;;;;;;1.27;0.77;;;;;;;35.48;24.67;99293.13;5096737;28;20035;-88
2023/07/30 09:30:27;;;;;;;1.60;0.77;;;;;;;35.86;24.78;99278.31;5095207;27;20531;-85
2023/07/30 09:32:54;;;;;;;0.60;0.60;;;;;;;36.13;24.61;99281.28;5095242;28;20093;-85
2023/07/30 09:35:20;;;;;;;2.88;2.15;;;;;;;36.26;25.75;99270.44;5099406;27;20500;-83
2023/07/30 09:37:45;;;;;;;2.83;2.08;;;;;;;35.63;24.03;99278.50;5101263;28;20048;-87
2023/07/30 09:40:13;;;;;;;4.18;2.88;;;;;;;35.15;25.44;99260.66;5090757;28;20035;-86
2023/07/30 09:42:42;;;;;;;8.90;5.00;;;;;;;35.39;26.71;99272.38;5092386;28;20020;-86
2023/07/30 09:45:16;;;;;;;7.55;2.75;;;;;;;35.84;26.12;99262.06;5092000;28;20028;-85
2023/07/30 09:47:46;;;;;;;1.73;1.25;;;;;;;36.25;24.11;99244.00;5101297;28;20047;-85
2023/07/30 09:50:14;;;;;;;1.15;0.90;;;;;;;36.41;26.20;99270.34;5097587;28;20069;-83
2023/07/30 09:52:40;;;;;;;0.98;0.60;;;;;;;36.73;24.83;99260.59;5096365;28;20149;-86
2023/07/30 09:55:07;;;;;;;2.92;0.60;;;;;;;36.16;25.58;99245.22;5111902;28;20112;-84
2023/07/30 09:57:33;;;;;;;2.10;1.15;;;;;;;36.46;24.84;99237.63;5112616;28;20030;-85
2023/07/30 09:59:58;;;;;;;1.25;0.70;;;;;;;36.16;24.13;99228.75;5112177;28;20031;-86
2023/07/30 10:02:26;;;;;;;0.52;0.43;;;;;;;36.40;25.49;99207.41;5097993;28;20058;-88
2023/07/30 10:04:56;;;;;;;4.15;3.13;;;;;;;36.74;25.11;99239.50;5102895;28;20023;-84
2023/07/30 10:07:24;;;;;;;1.33;1.23;;;;;;;36.60;24.25;99218.47;5100784;27;20117;-86
2023/07/30 10:09:54;;;;;;;1.70;1.17;;;;;;;36.87;23.34;99205.72;5097393;27;20742;-85
2023/07/30 10:12:28;;;;;;;1.00;0.60;;;;;;;36.93;23.96;99207.66;5101928;27;20047;-84
2023/07/30 10:14:54;;;;;;;1.90;1.07;;;;;;;36.42;22.99;99184.16;5102091;28;20104;-85
2023/07/30 10:17:19;;;;;;;1.08;0.82;;;;;;;36.31;23.33;99201.22;5098720;27;20039;-85
2023/07/30 10:19:50;;;;;;;0.63;0.57;;;;;;;36.29;24.69;99212.41;5099049;28;20103;-84
2023/07/30 10:22:18;;;;;;;0.95;0.40;;;;;;;36.12;23.33;99220.06;5097938;28;20028;-85
2023/07/30 10:25:12;;;;;;;2.05;0.70;;;;;;;36.40;25.63;99202.75;5130112;27;20429;-87
2023/07/30 10:27:40;;;;;;;1.83;0.95;;;;;;;35.93;23.72;99171.38;5095330;28;20043;-85
2023/07/30 10:30:11;;;;;;;2.15;1.08;;;;;;;36.78;23.56;99188.59;5094278;28;20039;-85
2023/07/30 10:33:02;;;;;;;0.52;0.40;;;;;;;37.18;22.83;99176.84;5090873;28;20116;-85
2023/07/30 10:35:46;;;;;;;23.02;1.85;;;;;;;37.38;22.19;99194.22;5097654;28;20036;-84
2023/07/30 10:38:14;;;;;;;1.35;1.10;;;;;;;36.98;22.27;99177.63;5094990;28;20031;-84
2023/07/30 10:40:40;;;;;;;0.47;0.40;;;;;;;36.99;22.51;99189.50;5096261;28;20031;-83
2023/07/30 10:43:15;;;;;;;0.70;0.70;;;;;;;36.87;23.17;99179.13;5094471;28;20046;-84
2023/07/30 10:45:51;;;;;;;5.40;2.50;;;;;;;37.05;22.09;99183.16;5097193;28;20462;-85
2023/07/30 10:48:17;;;;;;;0.40;0.30;;;;;;;37.26;22.05;99163.78;5094843;28;20039;-86
2023/07/30 10:50:48;;;;;;;0.40;0.30;;;;;;;37.39;21.81;99173.94;5092771;28;20046;-84
2023/07/30 10:53:18;;;;;;;4.25;1.83;;;;;;;37.33;21.95;99183.03;5092774;28;20444;-86
2023/07/30 10:55:44;;;;;;;1.35;0.98;;;;;;;37.08;22.47;99141.53;5092746;28;20115;-87
2023/07/30 10:58:10;;;;;;;0.90;0.55;;;;;;;36.90;22.82;99169.59;5073543;28;20051;-86
2023/07/30 11:00:37;;;;;;;1.77;0.73;;;;;;;36.97;21.40;99156.72;5092888;28;20042;-85
2023/07/30 11:03:03;;;;;;;1.38;0.93;;;;;;;36.91;21.93;99121.84;5094692;28;20036;-87
2023/07/30 11:05:29;;;;;;;1.08;0.57;;;;;;;37.12;21.64;99153.78;5097018;28;20574;-86
2023/07/30 11:07:56;;;;;;;2.47;1.00;;;;;;;36.98;21.67;99152.06;5097641;28;20047;-86
2023/07/30 11:10:21;;;;;;;2.17;1.25;;;;;;;36.80;21.64;99127.94;5110563;27;20548;-84
2023/07/30 11:12:49;;;;;;;1.00;0.65;;;;;;;36.70;21.55;99142.88;5092894;28;20181;-84
2023/07/30 11:15:16;;;;;;;0.75;0.45;;;;;;;36.44;21.07;99112.56;5099132;28;20506;-87
2023/07/30 11:17:44;;;;;;;2.58;1.02;;;;;;;36.77;23.23;99112.72;5094952;28;20042;-86
2023/07/30 11:20:22;;;;;;;2.03;1.13;;;;;;;36.92;22.04;99129.00;5094223;28;20081;-86
2023/07/30 11:22:48;;;;;;;13.18;1.23;;;;;;;36.80;21.07;99120.53;5096678;27;20031;-86
2023/07/30 11:25:17;;;;;;;1.33;0.70;;;;;;;36.74;21.62;99108.47;5098318;28;20477;-85
2023/07/30 11:27:51;;;;;;;1.27;1.17;;;;;;;37.10;21.58;99131.16;5097443;28;20137;-87
2023/07/30 11:30:18;;;;;;;1.13;0.80;;;;;;;37.14;20.50;99129.69;5100249;28;20027;-86